sensor_id;sensor_type;location;lat;lon;timestamp;P1;durP1;ratioP1;P2;durP2;ratioP2
15496;SDS011;7850;52.204;5.942;2023-07-29T00:04:49;1.01;;;1.01;;
15496;SDS011;7850;52.204;5.942;2023-07-29T00:04:49;2.69;;;2.59;;
15496;SDS011;7850;52.204;5.942;2023-07-29T00:04:49;2.58;;;2.48;;
15496;SDS011;7850;52.204;5.942;2023-07-29T00:04:59;2.99;;;2.89;;
15496;SDS011;7850;52.204;5.942;2023-07-29T00:05:59;2.81;;;2.71;;
15496;SDS011;7850;52.204;5.942;2023-07-29T00:06:59;3.40;;;3.30;;
15496;SDS011;7850;52.204;5.942;2023-07-29T00:08:04;2.71;;;2.61;;
15496;SDS011;7850;52.204;5.942;2023-07-29T00:08:59;2.59;;;2.49;;
15496;SDS011;7850;52.204;5.942;2023-07-29T00:10:00;2.53;;;2.43;;
15496;SDS011;7850;52.204;5.942;2023-07-29T00:11:00;3.17;;;3.07;;
15496;SDS011;7850;52.204;5.942;2023-07-29T00:12:00;2.93;;;2.83;;
15496;SDS011;7850;52.204;5.942;2023-07-29T00:13:00;2.02;;;1.99;;
15496;SDS011;7850;52.204;5.942;2023-07-29T00:14:00;2.66;;;2.56;;
15496;SDS011;7850;52.204;5.942;2023-07-29T00:15:04;1.57;;;1.57;;
15496;SDS011;7850;52.204;5.942;2023-07-29T00:16:00;1.22;;;1.22;;
15496;SDS011;7850;52.204;5.942;2023-07-29T00:17:00;1.79;;;1.79;;
15496;SDS011;7850;52.204;5.942;2023-07-29T00:18:00;1.80;;;1.80;;
15496;SDS011;7850;52.204;5.942;2023-07-29T00:19:00;1.59;;;1.59;;
15496;SDS011;7850;52.204;5.942;2023-07-29T00:20:00;1.76;;;1.76;;
15496;SDS011;7850;52.204;5.942;2023-07-29T00:21:00;1.38;;;1.38;;
15496;SDS011;7850;52.204;5.942;2023-07-29T00:22:00;1.49;;;1.49;;
15496;SDS011;7850;52.204;5.942;2023-07-29T00:23:00;1.93;;;1.91;;
15496;SDS011;7850;52.204;5.942;2023-07-29T00:24:00;2.31;;;2.21;;
15496;SDS011;7850;52.204;5.942;2023-07-29T00:25:00;1.30;;;1.30;;
15496;SDS011;7850;52.204;5.942;2023-07-29T00:26:00;1.34;;;1.34;;
15496;SDS011;7850;52.204;5.942;2023-07-29T00:27:00;1.34;;;1.34;;
15496;SDS011;7850;52.204;5.942;2023-07-29T00:28:00;1.08;;;1.08;;
15496;SDS011;7850;52.204;5.942;2023-07-29T00:29:00;1.50;;;1.50;;
15496;SDS011;7850;52.204;5.942;2023-07-29T00:30:00;1.27;;;1.27;;
15496;SDS011;7850;52.204;5.942;2023-07-29T00:31:01;0.91;;;0.91;;
15496;SDS011;7850;52.204;5.942;2023-07-29T00:32:00;1.13;;;1.13;;
15496;SDS011;7850;52.204;5.942;2023-07-29T00:33:00;0.84;;;0.84;;
15496;SDS011;7850;52.204;5.942;2023-07-29T00:34:00;1.13;;;1.13;;
15496;SDS011;7850;52.204;5.942;2023-07-29T00:35:00;1.34;;;1.34;;
15496;SDS011;7850;52.204;5.942;2023-07-29T00:36:01;1.22;;;1.22;;
15496;SDS011;7850;52.204;5.942;2023-07-29T00:37:01;1.56;;;1.56;;
15496;SDS011;7850;52.204;5.942;2023-07-29T00:38:01;1.68;;;1.68;;
15496;SDS011;7850;52.204;5.942;2023-07-29T00:39:01;0.96;;;0.96;;
15496;SDS011;7850;52.204;5.942;2023-07-29T00:40:01;0.62;;;0.62;;
15496;SDS011;7850;52.204;5.942;2023-07-29T00:41:01;0.36;;;0.36;;
15496;SDS011;7850;52.204;5.942;2023-07-29T00:42:01;0.30;;;0.30;;
15496;SDS011;7850;52.204;5.942;2023-07-29T00:43:01;0.39;;;0.39;;
15496;SDS011;7850;52.204;5.942;2023-07-29T00:44:01;0.30;;;0.30;;
15496;SDS011;7850;52.204;5.942;2023-07-29T00:45:01;1.02;;;1.02;;
15496;SDS011;7850;52.204;5.942;2023-07-29T00:46:01;0.98;;;0.98;;
15496;SDS011;7850;52.204;5.942;2023-07-29T00:47:02;0.96;;;0.96;;
15496;SDS011;7850;52.204;5.942;2023-07-29T00:48:01;0.92;;;0.92;;
15496;SDS011;7850;52.204;5.942;2023-07-29T00:49:01;1.14;;;1.14;;
15496;SDS011;7850;52.204;5.942;2023-07-29T00:50:02;0.89;;;0.89;;
15496;SDS011;7850;52.204;5.942;2023-07-29T00:51:01;0.92;;;0.92;;
15496;SDS011;7850;52.204;5.942;2023-07-29T00:52:01;0.85;;;0.85;;
15496;SDS011;7850;52.204;5.942;2023-07-29T00:53:01;0.74;;;0.74;;
15496;SDS011;7850;52.204;5.942;2023-07-29T00:54:01;0.90;;;0.90;;
15496;SDS011;7850;52.204;5.942;2023-07-29T00:55:02;0.89;;;0.89;;
15496;SDS011;7850;52.204;5.942;2023-07-29T00:56:01;0.94;;;0.94;;
15496;SDS011;7850;52.204;5.942;2023-07-29T00:57:01;1.75;;;1.75;;
15496;SDS011;7850;52.204;5.942;2023-07-29T00:58:02;0.94;;;0.94;;
15496;SDS011;7850;52.204;5.942;2023-07-29T00:59:02;0.85;;;0.85;;
15496;SDS011;7850;52.204;5.942;2023-07-29T01:00:02;1.13;;;1.13;;
15496;SDS011;7850;52.204;5.942;2023-07-29T01:01:02;1.49;;;1.49;;
15496;SDS011;7850;52.204;5.942;2023-07-29T01:02:02;1.65;;;1.65;;
15496;SDS011;7850;52.204;5.942;2023-07-29T01:03:02;1.16;;;1.16;;
15496;SDS011;7850;52.204;5.942;2023-07-29T01:04:02;1.48;;;1.48;;
15496;SDS011;7850;52.204;5.942;2023-07-29T01:05:02;1.72;;;1.72;;
15496;SDS011;7850;52.204;5.942;2023-07-29T01:06:07;1.58;;;1.58;;
15496;SDS011;7850;52.204;5.942;2023-07-29T01:07:03;1.44;;;1.44;;
15496;SDS011;7850;52.204;5.942;2023-07-29T01:08:04;1.33;;;1.33;;
15496;SDS011;7850;52.204;5.942;2023-07-29T01:09:02;1.45;;;1.45;;
15496;SDS011;7850;52.204;5.942;2023-07-29T01:10:03;2.09;;;2.05;;
15496;SDS011;7850;52.204;5.942;2023-07-29T01:11:03;2.47;;;2.37;;
15496;SDS011;7850;52.204;5.942;2023-07-29T01:12:05;2.50;;;2.40;;
15496;SDS011;7850;52.204;5.942;2023-07-29T01:13:04;2.21;;;2.15;;
15496;SDS011;7850;52.204;5.942;2023-07-29T01:14:04;1.82;;;1.82;;
15496;SDS011;7850;52.204;5.942;2023-07-29T01:15:05;1.64;;;1.64;;
15496;SDS011;7850;52.204;5.942;2023-07-29T01:16:04;1.43;;;1.43;;
15496;SDS011;7850;52.204;5.942;2023-07-29T01:17:03;1.79;;;1.79;;
15496;SDS011;7850;52.204;5.942;2023-07-29T01:18:04;1.48;;;1.48;;
15496;SDS011;7850;52.204;5.942;2023-07-29T01:19:04;1.48;;;1.48;;
15496;SDS011;7850;52.204;5.942;2023-07-29T01:20:05;1.51;;;1.51;;
15496;SDS011;7850;52.204;5.942;2023-07-29T01:21:03;0.98;;;0.98;;
15496;SDS011;7850;52.204;5.942;2023-07-29T01:22:03;1.28;;;1.28;;
15496;SDS011;7850;52.204;5.942;2023-07-29T01:23:03;0.60;;;0.60;;
15496;SDS011;7850;52.204;5.942;2023-07-29T01:24:03;0.53;;;0.53;;
15496;SDS011;7850;52.204;5.942;2023-07-29T01:25:03;0.64;;;0.64;;
15496;SDS011;7850;52.204;5.942;2023-07-29T01:26:03;0.52;;;0.52;;
15496;SDS011;7850;52.204;5.942;2023-07-29T01:27:03;0.50;;;0.50;;
15496;SDS011;7850;52.204;5.942;2023-07-29T01:28:03;0.49;;;0.49;;
15496;SDS011;7850;52.204;5.942;2023-07-29T01:29:03;0.57;;;0.57;;
15496;SDS011;7850;52.204;5.942;2023-07-29T01:30:04;0.53;;;0.53;;
15496;SDS011;7850;52.204;5.942;2023-07-29T01:31:06;0.50;;;0.50;;
15496;SDS011;7850;52.204;5.942;2023-07-29T01:32:04;0.43;;;0.43;;
15496;SDS011;7850;52.204;5.942;2023-07-29T01:33:04;0.43;;;0.43;;
15496;SDS011;7850;52.204;5.942;2023-07-29T01:34:05;0.58;;;0.58;;
15496;SDS011;7850;52.204;5.942;2023-07-29T01:35:06;1.21;;;1.21;;
15496;SDS011;7850;52.204;5.942;2023-07-29T01:36:06;1.15;;;1.15;;
15496;SDS011;7850;52.204;5.942;2023-07-29T01:37:03;1.56;;;1.56;;
15496;SDS011;7850;52.204;5.942;2023-07-29T01:38:05;1.59;;;1.59;;
15496;SDS011;7850;52.204;5.942;2023-07-29T01:39:04;1.09;;;1.09;;
15496;SDS011;7850;52.204;5.942;2023-07-29T01:40:04;0.85;;;0.85;;
15496;SDS011;7850;52.204;5.942;2023-07-29T01:41:06;0.84;;;0.84;;
15496;SDS011;7850;52.204;5.942;2023-07-29T01:42:04;0.56;;;0.56;;
15496;SDS011;7850;52.204;5.942;2023-07-29T01:43:04;0.68;;;0.68;;
15496;SDS011;7850;52.204;5.942;2023-07-29T01:44:04;0.59;;;0.59;;
15496;SDS011;7850;52.204;5.942;2023-07-29T01:45:04;0.73;;;0.73;;
15496;SDS011;7850;52.204;5.942;2023-07-29T01:46:04;1.15;;;1.15;;
15496;SDS011;7850;52.204;5.942;2023-07-29T01:47:04;1.12;;;1.12;;
15496;SDS011;7850;52.204;5.942;2023-07-29T01:48:04;0.46;;;0.46;;
15496;SDS011;7850;52.204;5.942;2023-07-29T01:49:04;0.27;;;0.27;;
15496;SDS011;7850;52.204;5.942;2023-07-29T01:50:05;0.25;;;0.25;;
15496;SDS011;7850;52.204;5.942;2023-07-29T01:51:04;0.20;;;0.20;;
15496;SDS011;7850;52.204;5.942;2023-07-29T01:52:04;0.27;;;0.27;;
15496;SDS011;7850;52.204;5.942;2023-07-29T01:53:04;0.91;;;0.91;;
15496;SDS011;7850;52.204;5.942;2023-07-29T01:54:04;0.53;;;0.53;;
15496;SDS011;7850;52.204;5.942;2023-07-29T01:55:05;0.30;;;0.30;;
15496;SDS011;7850;52.204;5.942;2023-07-29T01:56:05;0.32;;;0.32;;
15496;SDS011;7850;52.204;5.942;2023-07-29T01:57:05;0.28;;;0.28;;
15496;SDS011;7850;52.204;5.942;2023-07-29T01:58:05;0.25;;;0.25;;
15496;SDS011;7850;52.204;5.942;2023-07-29T01:59:05;0.76;;;0.76;;
15496;SDS011;7850;52.204;5.942;2023-07-29T02:00:05;0.37;;;0.37;;
15496;SDS011;7850;52.204;5.942;2023-07-29T02:01:05;0.22;;;0.22;;
15496;SDS011;7850;52.204;5.942;2023-07-29T02:02:05;0.38;;;0.38;;
15496;SDS011;7850;52.204;5.942;2023-07-29T02:03:05;0.41;;;0.41;;
15496;SDS011;7850;52.204;5.942;2023-07-29T02:04:05;0.30;;;0.30;;
15496;SDS011;7850;52.204;5.942;2023-07-29T02:05:05;0.29;;;0.29;;
15496;SDS011;7850;52.204;5.942;2023-07-29T02:06:05;0.40;;;0.40;;
15496;SDS011;7850;52.204;5.942;2023-07-29T02:07:05;0.30;;;0.30;;
15496;SDS011;7850;52.204;5.942;2023-07-29T02:08:05;0.51;;;0.51;;
15496;SDS011;7850;52.204;5.942;2023-07-29T02:09:05;0.20;;;0.20;;
15496;SDS011;7850;52.204;5.942;2023-07-29T02:10:06;0.20;;;0.20;;
15496;SDS011;7850;52.204;5.942;2023-07-29T02:11:05;0.32;;;0.32;;
15496;SDS011;7850;52.204;5.942;2023-07-29T02:12:06;0.63;;;0.63;;
15496;SDS011;7850;52.204;5.942;2023-07-29T02:13:05;0.40;;;0.40;;
15496;SDS011;7850;52.204;5.942;2023-07-29T02:14:05;0.29;;;0.29;;
15496;SDS011;7850;52.204;5.942;2023-07-29T02:15:06;0.20;;;0.20;;
15496;SDS011;7850;52.204;5.942;2023-07-29T02:16:05;0.72;;;0.72;;
15496;SDS011;7850;52.204;5.942;2023-07-29T02:17:05;0.22;;;0.22;;
15496;SDS011;7850;52.204;5.942;2023-07-29T02:18:05;0.56;;;0.56;;
15496;SDS011;7850;52.204;5.942;2023-07-29T02:19:05;0.40;;;0.40;;
15496;SDS011;7850;52.204;5.942;2023-07-29T02:20:06;0.20;;;0.20;;
15496;SDS011;7850;52.204;5.942;2023-07-29T02:21:06;0.26;;;0.26;;
15496;SDS011;7850;52.204;5.942;2023-07-29T02:22:06;0.20;;;0.20;;
15496;SDS011;7850;52.204;5.942;2023-07-29T02:23:06;0.22;;;0.22;;
15496;SDS011;7850;52.204;5.942;2023-07-29T02:24:06;0.36;;;0.36;;
15496;SDS011;7850;52.204;5.942;2023-07-29T02:25:06;0.38;;;0.38;;
15496;SDS011;7850;52.204;5.942;2023-07-29T02:26:06;0.20;;;0.20;;
15496;SDS011;7850;52.204;5.942;2023-07-29T02:27:06;0.27;;;0.27;;
15496;SDS011;7850;52.204;5.942;2023-07-29T02:28:06;0.24;;;0.24;;
15496;SDS011;7850;52.204;5.942;2023-07-29T02:29:06;0.22;;;0.22;;
15496;SDS011;7850;52.204;5.942;2023-07-29T02:30:06;0.30;;;0.30;;
15496;SDS011;7850;52.204;5.942;2023-07-29T02:31:09;0.20;;;0.20;;
15496;SDS011;7850;52.204;5.942;2023-07-29T02:32:06;0.20;;;0.20;;
15496;SDS011;7850;52.204;5.942;2023-07-29T02:33:06;0.24;;;0.24;;
15496;SDS011;7850;52.204;5.942;2023-07-29T02:34:06;0.20;;;0.20;;
15496;SDS011;7850;52.204;5.942;2023-07-29T02:35:06;0.22;;;0.22;;
15496;SDS011;7850;52.204;5.942;2023-07-29T02:36:06;0.23;;;0.23;;
15496;SDS011;7850;52.204;5.942;2023-07-29T02:37:06;0.23;;;0.23;;
15496;SDS011;7850;52.204;5.942;2023-07-29T02:38:06;0.30;;;0.30;;
15496;SDS011;7850;52.204;5.942;2023-07-29T02:39:06;0.82;;;0.82;;
15496;SDS011;7850;52.204;5.942;2023-07-29T02:40:06;0.86;;;0.86;;
15496;SDS011;7850;52.204;5.942;2023-07-29T02:41:07;0.72;;;0.72;;
15496;SDS011;7850;52.204;5.942;2023-07-29T02:42:06;0.98;;;0.98;;
15496;SDS011;7850;52.204;5.942;2023-07-29T02:43:06;0.86;;;0.86;;
15496;SDS011;7850;52.204;5.942;2023-07-29T02:44:06;0.79;;;0.79;;
15496;SDS011;7850;52.204;5.942;2023-07-29T02:45:07;0.85;;;0.85;;
15496;SDS011;7850;52.204;5.942;2023-07-29T02:46:06;0.58;;;0.58;;
15496;SDS011;7850;52.204;5.942;2023-07-29T02:47:06;0.54;;;0.54;;
15496;SDS011;7850;52.204;5.942;2023-07-29T02:48:06;0.69;;;0.69;;
15496;SDS011;7850;52.204;5.942;2023-07-29T02:49:07;0.52;;;0.52;;
15496;SDS011;7850;52.204;5.942;2023-07-29T02:50:07;0.30;;;0.30;;
15496;SDS011;7850;52.204;5.942;2023-07-29T02:51:07;0.75;;;0.75;;
15496;SDS011;7850;52.204;5.942;2023-07-29T02:52:07;0.68;;;0.68;;
15496;SDS011;7850;52.204;5.942;2023-07-29T02:53:07;0.73;;;0.73;;
15496;SDS011;7850;52.204;5.942;2023-07-29T02:54:07;0.39;;;0.39;;
15496;SDS011;7850;52.204;5.942;2023-07-29T02:55:07;0.30;;;0.30;;
15496;SDS011;7850;52.204;5.942;2023-07-29T02:56:07;0.38;;;0.38;;
15496;SDS011;7850;52.204;5.942;2023-07-29T02:57:07;0.32;;;0.32;;
15496;SDS011;7850;52.204;5.942;2023-07-29T02:58:07;0.72;;;0.72;;
15496;SDS011;7850;52.204;5.942;2023-07-29T02:59:07;0.58;;;0.58;;
15496;SDS011;7850;52.204;5.942;2023-07-29T03:00:07;0.68;;;0.68;;
15496;SDS011;7850;52.204;5.942;2023-07-29T03:01:07;0.59;;;0.59;;
15496;SDS011;7850;52.204;5.942;2023-07-29T03:02:07;1.81;;;1.81;;
15496;SDS011;7850;52.204;5.942;2023-07-29T03:03:07;0.46;;;0.46;;
15496;SDS011;7850;52.204;5.942;2023-07-29T03:04:07;0.63;;;0.63;;
15496;SDS011;7850;52.204;5.942;2023-07-29T03:05:08;0.65;;;0.65;;
15496;SDS011;7850;52.204;5.942;2023-07-29T03:06:08;0.86;;;0.86;;
15496;SDS011;7850;52.204;5.942;2023-07-29T03:07:07;0.34;;;0.34;;
15496;SDS011;7850;52.204;5.942;2023-07-29T03:08:07;1.03;;;1.03;;
15496;SDS011;7850;52.204;5.942;2023-07-29T03:09:07;1.36;;;1.36;;
15496;SDS011;7850;52.204;5.942;2023-07-29T03:10:08;0.85;;;0.85;;
15496;SDS011;7850;52.204;5.942;2023-07-29T03:11:08;0.89;;;0.89;;
15496;SDS011;7850;52.204;5.942;2023-07-29T03:12:08;0.72;;;0.72;;
15496;SDS011;7850;52.204;5.942;2023-07-29T03:13:08;0.58;;;0.58;;
15496;SDS011;7850;52.204;5.942;2023-07-29T03:14:08;0.30;;;0.30;;
15496;SDS011;7850;52.204;5.942;2023-07-29T03:15:08;0.30;;;0.30;;
15496;SDS011;7850;52.204;5.942;2023-07-29T03:16:08;1.27;;;1.27;;
15496;SDS011;7850;52.204;5.942;2023-07-29T03:17:08;0.30;;;0.30;;
15496;SDS011;7850;52.204;5.942;2023-07-29T03:18:08;0.50;;;0.50;;
15496;SDS011;7850;52.204;5.942;2023-07-29T03:19:08;0.23;;;0.23;;
15496;SDS011;7850;52.204;5.942;2023-07-29T03:20:08;0.20;;;0.20;;
15496;SDS011;7850;52.204;5.942;2023-07-29T03:21:08;0.20;;;0.20;;
15496;SDS011;7850;52.204;5.942;2023-07-29T03:22:08;0.20;;;0.20;;
15496;SDS011;7850;52.204;5.942;2023-07-29T03:23:08;0.22;;;0.22;;
15496;SDS011;7850;52.204;5.942;2023-07-29T03:24:08;0.34;;;0.34;;
15496;SDS011;7850;52.204;5.942;2023-07-29T03:25:08;0.25;;;0.25;;
15496;SDS011;7850;52.204;5.942;2023-07-29T03:26:08;0.44;;;0.44;;
15496;SDS011;7850;52.204;5.942;2023-07-29T03:27:08;0.59;;;0.59;;
15496;SDS011;7850;52.204;5.942;2023-07-29T03:28:08;0.30;;;0.30;;
15496;SDS011;7850;52.204;5.942;2023-07-29T03:29:12;0.23;;;0.23;;
15496;SDS011;7850;52.204;5.942;2023-07-29T03:30:09;0.38;;;0.38;;
15496;SDS011;7850;52.204;5.942;2023-07-29T03:31:09;0.30;;;0.30;;
15496;SDS011;7850;52.204;5.942;2023-07-29T03:32:09;0.40;;;0.40;;
15496;SDS011;7850;52.204;5.942;2023-07-29T03:33:09;0.77;;;0.77;;
15496;SDS011;7850;52.204;5.942;2023-07-29T03:34:09;0.45;;;0.45;;
15496;SDS011;7850;52.204;5.942;2023-07-29T03:35:09;0.41;;;0.41;;
15496;SDS011;7850;52.204;5.942;2023-07-29T03:36:09;0.62;;;0.62;;
15496;SDS011;7850;52.204;5.942;2023-07-29T03:37:09;0.36;;;0.36;;
15496;SDS011;7850;52.204;5.942;2023-07-29T03:38:09;0.20;;;0.20;;
15496;SDS011;7850;52.204;5.942;2023-07-29T03:39:09;0.20;;;0.20;;
15496;SDS011;7850;52.204;5.942;2023-07-29T03:40:09;0.30;;;0.30;;
15496;SDS011;7850;52.204;5.942;2023-07-29T03:41:09;0.20;;;0.20;;
15496;SDS011;7850;52.204;5.942;2023-07-29T03:42:09;0.24;;;0.24;;
15496;SDS011;7850;52.204;5.942;2023-07-29T03:43:09;0.37;;;0.37;;
15496;SDS011;7850;52.204;5.942;2023-07-29T03:44:09;0.25;;;0.25;;
15496;SDS011;7850;52.204;5.942;2023-07-29T03:45:09;0.36;;;0.36;;
15496;SDS011;7850;52.204;5.942;2023-07-29T03:46:09;0.35;;;0.35;;
15496;SDS011;7850;52.204;5.942;2023-07-29T03:47:09;0.23;;;0.23;;
15496;SDS011;7850;52.204;5.942;2023-07-29T03:48:09;0.43;;;0.43;;
15496;SDS011;7850;52.204;5.942;2023-07-29T03:49:09;0.59;;;0.59;;
15496;SDS011;7850;52.204;5.942;2023-07-29T03:50:09;0.45;;;0.45;;
15496;SDS011;7850;52.204;5.942;2023-07-29T03:51:09;0.37;;;0.37;;
15496;SDS011;7850;52.204;5.942;2023-07-29T03:52:09;0.48;;;0.48;;
15496;SDS011;7850;52.204;5.942;2023-07-29T03:53:09;0.20;;;0.20;;
15496;SDS011;7850;52.204;5.942;2023-07-29T03:54:10;0.27;;;0.27;;
15496;SDS011;7850;52.204;5.942;2023-07-29T03:55:14;0.38;;;0.38;;
15496;SDS011;7850;52.204;5.942;2023-07-29T03:56:10;0.51;;;0.51;;
15496;SDS011;7850;52.204;5.942;2023-07-29T03:57:10;0.30;;;0.30;;
15496;SDS011;7850;52.204;5.942;2023-07-29T03:58:10;0.23;;;0.23;;
15496;SDS011;7850;52.204;5.942;2023-07-29T03:59:10;0.43;;;0.43;;
15496;SDS011;7850;52.204;5.942;2023-07-29T04:00:10;0.20;;;0.20;;
15496;SDS011;7850;52.204;5.942;2023-07-29T04:01:10;0.23;;;0.23;;
15496;SDS011;7850;52.204;5.942;2023-07-29T04:02:10;0.57;;;0.57;;
15496;SDS011;7850;52.204;5.942;2023-07-29T04:03:10;0.32;;;0.32;;
15496;SDS011;7850;52.204;5.942;2023-07-29T04:04:10;0.48;;;0.48;;
15496;SDS011;7850;52.204;5.942;2023-07-29T04:05:10;0.20;;;0.20;;
15496;SDS011;7850;52.204;5.942;2023-07-29T04:06:10;0.28;;;0.28;;
15496;SDS011;7850;52.204;5.942;2023-07-29T04:07:10;0.27;;;0.27;;
15496;SDS011;7850;52.204;5.942;2023-07-29T04:08:10;0.30;;;0.30;;
15496;SDS011;7850;52.204;5.942;2023-07-29T04:09:10;0.23;;;0.23;;
15496;SDS011;7850;52.204;5.942;2023-07-29T04:10:10;0.34;;;0.34;;
15496;SDS011;7850;52.204;5.942;2023-07-29T04:11:10;0.35;;;0.35;;
15496;SDS011;7850;52.204;5.942;2023-07-29T04:12:10;0.32;;;0.32;;
15496;SDS011;7850;52.204;5.942;2023-07-29T04:13:10;0.30;;;0.30;;
15496;SDS011;7850;52.204;5.942;2023-07-29T04:14:10;0.27;;;0.27;;
15496;SDS011;7850;52.204;5.942;2023-07-29T04:15:10;0.23;;;0.23;;
15496;SDS011;7850;52.204;5.942;2023-07-29T04:16:10;0.39;;;0.39;;
15496;SDS011;7850;52.204;5.942;2023-07-29T04:17:10;0.90;;;0.90;;
15496;SDS011;7850;52.204;5.942;2023-07-29T04:18:10;1.18;;;1.18;;
15496;SDS011;7850;52.204;5.942;2023-07-29T04:19:10;0.56;;;0.56;;
15496;SDS011;7850;52.204;5.942;2023-07-29T04:20:11;1.32;;;1.32;;
15496;SDS011;7850;52.204;5.942;2023-07-29T04:21:10;0.52;;;0.52;;
15496;SDS011;7850;52.204;5.942;2023-07-29T04:22:10;0.31;;;0.31;;
15496;SDS011;7850;52.204;5.942;2023-07-29T04:23:11;0.20;;;0.20;;
15496;SDS011;7850;52.204;5.942;2023-07-29T04:24:11;0.34;;;0.34;;
15496;SDS011;7850;52.204;5.942;2023-07-29T04:25:11;0.55;;;0.55;;
15496;SDS011;7850;52.204;5.942;2023-07-29T04:26:11;0.39;;;0.39;;
15496;SDS011;7850;52.204;5.942;2023-07-29T04:27:11;0.66;;;0.66;;
15496;SDS011;7850;52.204;5.942;2023-07-29T04:28:11;0.63;;;0.63;;
15496;SDS011;7850;52.204;5.942;2023-07-29T04:29:11;0.59;;;0.59;;
15496;SDS011;7850;52.204;5.942;2023-07-29T04:30:11;0.85;;;0.85;;
15496;SDS011;7850;52.204;5.942;2023-07-29T04:31:11;0.75;;;0.75;;
15496;SDS011;7850;52.204;5.942;2023-07-29T04:32:11;0.64;;;0.64;;
15496;SDS011;7850;52.204;5.942;2023-07-29T04:33:11;0.58;;;0.58;;
15496;SDS011;7850;52.204;5.942;2023-07-29T04:34:11;0.41;;;0.41;;
15496;SDS011;7850;52.204;5.942;2023-07-29T04:35:11;0.61;;;0.61;;
15496;SDS011;7850;52.204;5.942;2023-07-29T04:36:11;0.42;;;0.42;;
15496;SDS011;7850;52.204;5.942;2023-07-29T04:37:11;0.20;;;0.20;;
15496;SDS011;7850;52.204;5.942;2023-07-29T04:38:11;0.20;;;0.20;;
15496;SDS011;7850;52.204;5.942;2023-07-29T04:39:11;0.27;;;0.27;;
15496;SDS011;7850;52.204;5.942;2023-07-29T04:40:11;0.31;;;0.31;;
15496;SDS011;7850;52.204;5.942;2023-07-29T04:41:11;0.20;;;0.20;;
15496;SDS011;7850;52.204;5.942;2023-07-29T04:42:11;0.24;;;0.24;;
15496;SDS011;7850;52.204;5.942;2023-07-29T04:43:11;0.20;;;0.20;;
15496;SDS011;7850;52.204;5.942;2023-07-29T04:44:11;0.20;;;0.20;;
15496;SDS011;7850;52.204;5.942;2023-07-29T04:45:11;0.28;;;0.28;;
15496;SDS011;7850;52.204;5.942;2023-07-29T04:46:11;0.20;;;0.20;;
15496;SDS011;7850;52.204;5.942;2023-07-29T04:47:11;0.23;;;0.23;;
15496;SDS011;7850;52.204;5.942;2023-07-29T04:48:11;0.37;;;0.37;;
15496;SDS011;7850;52.204;5.942;2023-07-29T04:49:11;0.32;;;0.32;;
15496;SDS011;7850;52.204;5.942;2023-07-29T04:50:12;0.20;;;0.20;;
15496;SDS011;7850;52.204;5.942;2023-07-29T04:51:12;0.20;;;0.20;;
15496;SDS011;7850;52.204;5.942;2023-07-29T04:52:12;0.33;;;0.33;;
15496;SDS011;7850;52.204;5.942;2023-07-29T04:53:12;0.25;;;0.25;;
15496;SDS011;7850;52.204;5.942;2023-07-29T04:54:12;0.22;;;0.22;;
15496;SDS011;7850;52.204;5.942;2023-07-29T04:55:12;0.30;;;0.30;;
15496;SDS011;7850;52.204;5.942;2023-07-29T04:56:12;0.20;;;0.20;;
15496;SDS011;7850;52.204;5.942;2023-07-29T04:57:12;0.20;;;0.20;;
15496;SDS011;7850;52.204;5.942;2023-07-29T04:58:12;0.34;;;0.34;;
15496;SDS011;7850;52.204;5.942;2023-07-29T04:59:12;0.30;;;0.30;;
15496;SDS011;7850;52.204;5.942;2023-07-29T05:00:12;0.30;;;0.30;;
15496;SDS011;7850;52.204;5.942;2023-07-29T05:01:12;0.30;;;0.30;;
15496;SDS011;7850;52.204;5.942;2023-07-29T05:02:12;0.20;;;0.20;;
15496;SDS011;7850;52.204;5.942;2023-07-29T05:03:12;0.20;;;0.20;;
15496;SDS011;7850;52.204;5.942;2023-07-29T05:04:12;0.20;;;0.20;;
15496;SDS011;7850;52.204;5.942;2023-07-29T05:05:12;0.20;;;0.20;;
15496;SDS011;7850;52.204;5.942;2023-07-29T05:06:12;0.42;;;0.42;;
15496;SDS011;7850;52.204;5.942;2023-07-29T05:07:12;0.36;;;0.36;;
15496;SDS011;7850;52.204;5.942;2023-07-29T05:08:12;0.38;;;0.38;;
15496;SDS011;7850;52.204;5.942;2023-07-29T05:09:13;0.40;;;0.40;;
15496;SDS011;7850;52.204;5.942;2023-07-29T05:10:13;0.46;;;0.46;;
15496;SDS011;7850;52.204;5.942;2023-07-29T05:11:13;0.30;;;0.30;;
15496;SDS011;7850;52.204;5.942;2023-07-29T05:12:13;0.20;;;0.20;;
15496;SDS011;7850;52.204;5.942;2023-07-29T05:13:13;0.20;;;0.20;;
15496;SDS011;7850;52.204;5.942;2023-07-29T05:14:13;0.20;;;0.20;;
15496;SDS011;7850;52.204;5.942;2023-07-29T05:15:13;0.20;;;0.20;;
15496;SDS011;7850;52.204;5.942;2023-07-29T05:16:13;0.20;;;0.20;;
15496;SDS011;7850;52.204;5.942;2023-07-29T05:17:13;0.20;;;0.20;;
15496;SDS011;7850;52.204;5.942;2023-07-29T05:18:13;0.20;;;0.20;;
15496;SDS011;7850;52.204;5.942;2023-07-29T05:19:13;0.20;;;0.20;;
15496;SDS011;7850;52.204;5.942;2023-07-29T05:20:13;0.20;;;0.20;;
15496;SDS011;7850;52.204;5.942;2023-07-29T05:21:13;0.20;;;0.20;;
15496;SDS011;7850;52.204;5.942;2023-07-29T05:22:14;0.26;;;0.26;;
15496;SDS011;7850;52.204;5.942;2023-07-29T05:23:13;0.23;;;0.23;;
15496;SDS011;7850;52.204;5.942;2023-07-29T05:24:13;0.28;;;0.28;;
15496;SDS011;7850;52.204;5.942;2023-07-29T05:25:13;0.24;;;0.24;;
15496;SDS011;7850;52.204;5.942;2023-07-29T05:26:13;0.28;;;0.28;;
15496;SDS011;7850;52.204;5.942;2023-07-29T05:27:13;0.20;;;0.20;;
15496;SDS011;7850;52.204;5.942;2023-07-29T05:28:13;0.20;;;0.20;;
15496;SDS011;7850;52.204;5.942;2023-07-29T05:29:13;0.20;;;0.20;;
15496;SDS011;7850;52.204;5.942;2023-07-29T05:30:13;0.20;;;0.20;;
15496;SDS011;7850;52.204;5.942;2023-07-29T05:31:13;0.20;;;0.20;;
15496;SDS011;7850;52.204;5.942;2023-07-29T05:32:13;0.20;;;0.20;;
15496;SDS011;7850;52.204;5.942;2023-07-29T05:33:13;0.30;;;0.30;;
15496;SDS011;7850;52.204;5.942;2023-07-29T05:34:14;0.20;;;0.20;;
15496;SDS011;7850;52.204;5.942;2023-07-29T05:35:14;0.20;;;0.20;;
15496;SDS011;7850;52.204;5.942;2023-07-29T05:36:14;0.20;;;0.20;;
15496;SDS011;7850;52.204;5.942;2023-07-29T05:37:14;0.20;;;0.20;;
15496;SDS011;7850;52.204;5.942;2023-07-29T05:38:14;0.20;;;0.20;;
15496;SDS011;7850;52.204;5.942;2023-07-29T05:39:14;0.20;;;0.20;;
15496;SDS011;7850;52.204;5.942;2023-07-29T05:40:14;0.20;;;0.20;;
15496;SDS011;7850;52.204;5.942;2023-07-29T05:41:14;0.20;;;0.20;;
15496;SDS011;7850;52.204;5.942;2023-07-29T05:42:14;0.20;;;0.20;;
15496;SDS011;7850;52.204;5.942;2023-07-29T05:43:14;0.27;;;0.27;;
15496;SDS011;7850;52.204;5.942;2023-07-29T05:44:14;0.25;;;0.25;;
15496;SDS011;7850;52.204;5.942;2023-07-29T05:45:14;0.20;;;0.20;;
15496;SDS011;7850;52.204;5.942;2023-07-29T05:46:14;0.20;;;0.20;;
15496;SDS011;7850;52.204;5.942;2023-07-29T05:47:14;0.20;;;0.20;;
15496;SDS011;7850;52.204;5.942;2023-07-29T05:48:14;0.20;;;0.20;;
15496;SDS011;7850;52.204;5.942;2023-07-29T05:49:14;0.36;;;0.36;;
15496;SDS011;7850;52.204;5.942;2023-07-29T05:50:14;0.30;;;0.30;;
15496;SDS011;7850;52.204;5.942;2023-07-29T05:51:14;0.20;;;0.20;;
15496;SDS011;7850;52.204;5.942;2023-07-29T05:52:14;0.20;;;0.20;;
15496;SDS011;7850;52.204;5.942;2023-07-29T05:53:14;0.20;;;0.20;;
15496;SDS011;7850;52.204;5.942;2023-07-29T05:54:14;0.30;;;0.30;;
15496;SDS011;7850;52.204;5.942;2023-07-29T05:55:15;0.30;;;0.30;;
15496;SDS011;7850;52.204;5.942;2023-07-29T05:56:14;0.35;;;0.35;;
15496;SDS011;7850;52.204;5.942;2023-07-29T05:57:15;0.30;;;0.30;;
15496;SDS011;7850;52.204;5.942;2023-07-29T05:58:15;0.20;;;0.20;;
15496;SDS011;7850;52.204;5.942;2023-07-29T05:59:15;0.20;;;0.20;;
15496;SDS011;7850;52.204;5.942;2023-07-29T06:00:15;0.20;;;0.20;;
15496;SDS011;7850;52.204;5.942;2023-07-29T06:01:15;0.27;;;0.27;;
15496;SDS011;7850;52.204;5.942;2023-07-29T06:02:15;0.36;;;0.36;;
15496;SDS011;7850;52.204;5.942;2023-07-29T06:03:15;0.41;;;0.41;;
15496;SDS011;7850;52.204;5.942;2023-07-29T06:04:15;0.30;;;0.30;;
15496;SDS011;7850;52.204;5.942;2023-07-29T06:05:15;0.30;;;0.30;;
15496;SDS011;7850;52.204;5.942;2023-07-29T06:06:15;0.41;;;0.41;;
15496;SDS011;7850;52.204;5.942;2023-07-29T06:07:15;0.30;;;0.30;;
15496;SDS011;7850;52.204;5.942;2023-07-29T06:08:15;0.54;;;0.54;;